sensor_id;sensor_type;location;lat;lon;timestamp;temperature;humidity
3758;DHT22;1894;51.038;13.692;2023-06-19T00:01:08;18.00;99.90
3758;DHT22;1894;51.038;13.692;2023-06-19T00:03:35;17.90;99.90
3758;DHT22;1894;51.038;13.692;2023-06-19T00:06:03;17.90;99.90
3758;DHT22;1894;51.038;13.692;2023-06-19T00:08:30;18.00;99.90
3758;DHT22;1894;51.038;13.692;2023-06-19T00:10:57;17.90;99.90
3758;DHT22;1894;51.038;13.692;2023-06-19T00:13:24;17.90;99.90
3758;DHT22;1894;51.038;13.692;2023-06-19T00:15:51;17.80;99.90
3758;DHT22;1894;51.038;13.692;2023-06-19T00:18:18;17.70;99.90
3758;DHT22;1894;51.038;13.692;2023-06-19T00:20:46;17.60;99.90
3758;DHT22;1894;51.038;13.692;2023-06-19T00:23:14;17.60;99.90
3758;DHT22;1894;51.038;13.692;2023-06-19T00:25:44;17.50;99.90
3758;DHT22;1894;51.038;13.692;2023-06-19T00:28:11;17.40;99.90
3758;DHT22;1894;51.038;13.692;2023-06-19T00:30:41;17.50;99.90
3758;DHT22;1894;51.038;13.692;2023-06-19T00:33:08;17.50;99.90
3758;DHT22;1894;51.038;13.692;2023-06-19T00:35:35;17.50;99.90
3758;DHT22;1894;51.038;13.692;2023-06-19T00:38:03;17.40;99.90
3758;DHT22;1894;51.038;13.692;2023-06-19T00:40:32;17.40;99.90
3758;DHT22;1894;51.038;13.692;2023-06-19T00:42:59;17.50;99.90
3758;DHT22;1894;51.038;13.692;2023-06-19T00:45:27;17.50;99.90
3758;DHT22;1894;51.038;13.692;2023-06-19T00:47:57;17.60;99.90
3758;DHT22;1894;51.038;13.692;2023-06-19T00:50:25;17.50;99.90
3758;DHT22;1894;51.038;13.692;2023-06-19T00:52:52;17.40;99.90
3758;DHT22;1894;51.038;13.692;2023-06-19T00:55:21;17.30;99.90
3758;DHT22;1894;51.038;13.692;2023-06-19T00:57:49;17.30;99.90
3758;DHT22;1894;51.038;13.692;2023-06-19T01:00:17;17.20;99.90
3758;DHT22;1894;51.038;13.692;2023-06-19T01:02:45;17.10;99.90
3758;DHT22;1894;51.038;13.692;2023-06-19T01:05:13;17.10;99.90
3758;DHT22;1894;51.038;13.692;2023-06-19T01:07:46;17.00;99.90
3758;DHT22;1894;51.038;13.692;2023-06-19T01:10:19;16.90;99.90
3758;DHT22;1894;51.038;13.692;2023-06-19T01:13:00;16.90;99.90
3758;DHT22;1894;51.038;13.692;2023-06-19T01:15:28;16.90;99.90
3758;DHT22;1894;51.038;13.692;2023-06-19T01:17:57;16.90;99.90
3758;DHT22;1894;51.038;13.692;2023-06-19T01:20:25;16.80;99.90
3758;DHT22;1894;51.038;13.692;2023-06-19T01:22:53;16.70;99.90
3758;DHT22;1894;51.038;13.692;2023-06-19T01:25:24;16.70;99.90
3758;DHT22;1894;51.038;13.692;2023-06-19T01:27:51;16.50;99.90
3758;DHT22;1894;51.038;13.692;2023-06-19T01:30:19;16.50;99.90
3758;DHT22;1894;51.038;13.692;2023-06-19T01:33:00;16.50;99.90
3758;DHT22;1894;51.038;13.692;2023-06-19T01:35:33;16.40;99.90
3758;DHT22;1894;51.038;13.692;2023-06-19T01:38:01;16.40;99.90
3758;DHT22;1894;51.038;13.692;2023-06-19T01:40:35;16.50;99.90
3758;DHT22;1894;51.038;13.692;2023-06-19T01:43:04;16.50;99.90
3758;DHT22;1894;51.038;13.692;2023-06-19T01:45:32;16.50;99.90
3758;DHT22;1894;51.038;13.692;2023-06-19T01:48:00;16.50;99.90
3758;DHT22;1894;51.038;13.692;2023-06-19T01:50:27;16.50;99.90
3758;DHT22;1894;51.038;13.692;2023-06-19T01:52:55;16.50;99.90
3758;DHT22;1894;51.038;13.692;2023-06-19T01:55:22;16.50;99.90
3758;DHT22;1894;51.038;13.692;2023-06-19T01:57:49;16.40;99.90
3758;DHT22;1894;51.038;13.692;2023-06-19T02:00:16;16.40;99.90
3758;DHT22;1894;51.038;13.692;2023-06-19T02:02:44;16.40;99.90
3758;DHT22;1894;51.038;13.692;2023-06-19T02:05:11;16.40;99.90
3758;DHT22;1894;51.038;13.692;2023-06-19T02:07:38;16.40;99.90
3758;DHT22;1894;51.038;13.692;2023-06-19T02:10:06;16.40;99.90
3758;DHT22;1894;51.038;13.692;2023-06-19T02:12:33;16.30;99.90
3758;DHT22;1894;51.038;13.692;2023-06-19T02:15:00;16.30;99.90
3758;DHT22;1894;51.038;13.692;2023-06-19T02:17:27;16.30;99.90
3758;DHT22;1894;51.038;13.692;2023-06-19T02:19:55;16.30;99.90
3758;DHT22;1894;51.038;13.692;2023-06-19T02:22:23;16.20;99.90
3758;DHT22;1894;51.038;13.692;2023-06-19T02:24:53;16.20;99.90
3758;DHT22;1894;51.038;13.692;2023-06-19T02:27:20;16.20;99.90
3758;DHT22;1894;51.038;13.692;2023-06-19T02:29:47;16.20;99.90
3758;DHT22;1894;51.038;13.692;2023-06-19T02:32:14;16.20;99.90
3758;DHT22;1894;51.038;13.692;2023-06-19T02:34:41;16.30;99.90
3758;DHT22;1894;51.038;13.692;2023-06-19T02:37:08;16.30;99.90
3758;DHT22;1894;51.038;13.692;2023-06-19T02:39:36;16.30;99.90
3758;DHT22;1894;51.038;13.692;2023-06-19T02:42:03;16.20;99.90
3758;DHT22;1894;51.038;13.692;2023-06-19T02:44:31;16.20;99.90
3758;DHT22;1894;51.038;13.692;2023-06-19T02:46:58;16.20;99.90
3758;DHT22;1894;51.038;13.692;2023-06-19T02:49:25;16.30;99.90
3758;DHT22;1894;51.038;13.692;2023-06-19T02:51:52;16.30;99.90
3758;DHT22;1894;51.038;13.692;2023-06-19T02:54:20;16.20;99.90
3758;DHT22;1894;51.038;13.692;2023-06-19T02:56:47;16.20;99.90
3758;DHT22;1894;51.038;13.692;2023-06-19T02:59:17;16.20;99.90
3758;DHT22;1894;51.038;13.692;2023-06-19T03:01:44;16.20;99.90
3758;DHT22;1894;51.038;13.692;2023-06-19T03:04:13;16.30;99.90
3758;DHT22;1894;51.038;13.692;2023-06-19T03:06:40;16.40;99.90
3758;DHT22;1894;51.038;13.692;2023-06-19T03:09:08;16.30;99.90
3758;DHT22;1894;51.038;13.692;2023-06-19T03:11:39;16.40;99.90
3758;DHT22;1894;51.038;13.692;2023-06-19T03:14:06;16.40;99.90
3758;DHT22;1894;51.038;13.692;2023-06-19T03:16:34;16.50;99.90
3758;DHT22;1894;51.038;13.692;2023-06-19T03:19:02;16.60;99.90
3758;DHT22;1894;51.038;13.692;2023-06-19T03:21:29;16.60;99.90
3758;DHT22;1894;51.038;13.692;2023-06-19T03:23:56;16.60;99.90
3758;DHT22;1894;51.038;13.692;2023-06-19T03:26:24;16.70;99.90
3758;DHT22;1894;51.038;13.692;2023-06-19T03:28:59;16.70;99.90
3758;DHT22;1894;51.038;13.692;2023-06-19T03:31:30;16.80;99.90
3758;DHT22;1894;51.038;13.692;2023-06-19T03:33:58;16.90;99.90
3758;DHT22;1894;51.038;13.692;2023-06-19T03:36:26;16.90;99.90
3758;DHT22;1894;51.038;13.692;2023-06-19T03:38:53;17.00;99.90
3758;DHT22;1894;51.038;13.692;2023-06-19T03:41:26;17.00;99.90
3758;DHT22;1894;51.038;13.692;2023-06-19T03:43:54;17.00;99.90
3758;DHT22;1894;51.038;13.692;2023-06-19T03:46:23;17.10;99.90
3758;DHT22;1894;51.038;13.692;2023-06-19T03:48:51;17.10;99.90
3758;DHT22;1894;51.038;13.692;2023-06-19T03:51:18;17.10;99.90
3758;DHT22;1894;51.038;13.692;2023-06-19T03:53:45;17.10;99.90
3758;DHT22;1894;51.038;13.692;2023-06-19T03:56:12;17.10;99.90
3758;DHT22;1894;51.038;13.692;2023-06-19T03:58:42;17.10;99.90
3758;DHT22;1894;51.038;13.692;2023-06-19T04:01:09;17.10;99.90
3758;DHT22;1894;51.038;13.692;2023-06-19T04:03:36;17.10;99.90
3758;DHT22;1894;51.038;13.692;2023-06-19T04:06:06;17.20;99.90
3758;DHT22;1894;51.038;13.692;2023-06-19T04:08:38;17.20;99.90
3758;DHT22;1894;51.038;13.692;2023-06-19T04:11:05;17.40;99.90
3758;DHT22;1894;51.038;13.692;2023-06-19T04:13:32;17.60;99.90
3758;DHT22;1894;51.038;13.692;2023-06-19T04:15:59;17.70;99.90
3758;DHT22;1894;51.038;13.692;2023-06-19T04:18:27;17.80;99.90
3758;DHT22;1894;51.038;13.692;2023-06-19T04:20:56;17.80;99.90
3758;DHT22;1894;51.038;13.692;2023-06-19T04:23:23;17.80;99.90
3758;DHT22;1894;51.038;13.692;2023-06-19T04:25:50;18.00;99.90
3758;DHT22;1894;51.038;13.692;2023-06-19T04:28:17;18.20;99.90
3758;DHT22;1894;51.038;13.692;2023-06-19T04:30:44;18.50;99.90
3758;DHT22;1894;51.038;13.692;2023-06-19T04:33:11;18.50;99.90
3758;DHT22;1894;51.038;13.692;2023-06-19T04:35:38;18.50;99.90
3758;DHT22;1894;51.038;13.692;2023-06-19T04:38:09;18.40;99.90
3758;DHT22;1894;51.038;13.692;2023-06-19T04:40:36;18.60;99.90
3758;DHT22;1894;51.038;13.692;2023-06-19T04:43:03;18.80;99.90
3758;DHT22;1894;51.038;13.692;2023-06-19T04:45:32;19.00;99.90
3758;DHT22;1894;51.038;13.692;2023-06-19T04:47:59;18.90;99.90
3758;DHT22;1894;51.038;13.692;2023-06-19T04:50:30;19.00;99.90
3758;DHT22;1894;51.038;13.692;2023-06-19T04:52:57;19.00;99.90
3758;DHT22;1894;51.038;13.692;2023-06-19T04:55:24;19.00;99.90
3758;DHT22;1894;51.038;13.692;2023-06-19T04:57:52;19.00;99.90
3758;DHT22;1894;51.038;13.692;2023-06-19T05:00:19;19.20;99.90
3758;DHT22;1894;51.038;13.692;2023-06-19T05:02:47;19.40;99.90
3758;DHT22;1894;51.038;13.692;2023-06-19T05:05:15;19.40;99.90
3758;DHT22;1894;51.038;13.692;2023-06-19T05:07:43;19.30;99.90
3758;DHT22;1894;51.038;13.692;2023-06-19T05:10:12;19.20;99.90
3758;DHT22;1894;51.038;13.692;2023-06-19T05:12:39;19.30;99.90
3758;DHT22;1894;51.038;13.692;2023-06-19T05:15:06;19.60;99.90
3758;DHT22;1894;51.038;13.692;2023-06-19T05:17:33;19.70;99.90
3758;DHT22;1894;51.038;13.692;2023-06-19T05:20:01;19.70;99.90
3758;DHT22;1894;51.038;13.692;2023-06-19T05:22:28;19.60;99.90
3758;DHT22;1894;51.038;13.692;2023-06-19T05:24:56;19.50;99.90
3758;DHT22;1894;51.038;13.692;2023-06-19T05:27:23;19.60;99.90
3758;DHT22;1894;51.038;13.692;2023-06-19T05:29:50;19.60;99.90
3758;DHT22;1894;51.038;13.692;2023-06-19T05:32:18;19.70;99.90
3758;DHT22;1894;51.038;13.692;2023-06-19T05:34:45;19.70;99.90
3758;DHT22;1894;51.038;13.692;2023-06-19T05:37:12;19.70;99.90
3758;DHT22;1894;51.038;13.692;2023-06-19T05:39:41;19.80;99.90
3758;DHT22;1894;51.038;13.692;2023-06-19T05:42:08;20.00;99.90
3758;DHT22;1894;51.038;13.692;2023-06-19T05:44:35;19.90;99.90
3758;DHT22;1894;51.038;13.692;2023-06-19T05:47:03;20.00;99.90
3758;DHT22;1894;51.038;13.692;2023-06-19T05:49:30;19.90;99.90
3758;DHT22;1894;51.038;13.692;2023-06-19T05:51:57;19.80;99.90
3758;DHT22;1894;51.038;13.692;2023-06-19T05:54:27;20.00;99.90
3758;DHT22;1894;51.038;13.692;2023-06-19T05:56:54;20.10;99.90
3758;DHT22;1894;51.038;13.692;2023-06-19T05:59:21;20.20;99.90
3758;DHT22;1894;51.038;13.692;2023-06-19T06:01:49;20.30;99.90
3758;DHT22;1894;51.038;13.692;2023-06-19T06:04:17;20.30;99.90
3758;DHT22;1894;51.038;13.692;2023-06-19T06:06:45;20.30;99.90
3758;DHT22;1894;51.038;13.692;2023-06-19T06:09:12;20.20;99.90
3758;DHT22;1894;51.038;13.692;2023-06-19T06:11:40;20.30;99.90
3758;DHT22;1894;51.038;13.692;2023-06-19T06:14:07;20.40;99.90
3758;DHT22;1894;51.038;13.692;2023-06-19T06:16:36;20.70;99.90
3758;DHT22;1894;51.038;13.692;2023-06-19T06:19:03;20.70;99.90
3758;DHT22;1894;51.038;13.692;2023-06-19T06:21:33;20.80;99.90
3758;DHT22;1894;51.038;13.692;2023-06-19T06:24:02;20.80;99.90
3758;DHT22;1894;51.038;13.692;2023-06-19T06:26:29;20.90;99.90
3758;DHT22;1894;51.038;13.692;2023-06-19T06:28:56;21.00;99.90
3758;DHT22;1894;51.038;13.692;2023-06-19T06:31:23;21.20;99.90
3758;DHT22;1894;51.038;13.692;2023-06-19T06:33:50;21.40;99.90
3758;DHT22;1894;51.038;13.692;2023-06-19T06:36:18;21.30;99.90
3758;DHT22;1894;51.038;13.692;2023-06-19T06:39:02;21.30;99.90
3758;DHT22;1894;51.038;13.692;2023-06-19T06:41:29;21.00;99.90
3758;DHT22;1894;51.038;13.692;2023-06-19T06:43:56;21.00;99.90
3758;DHT22;1894;51.038;13.692;2023-06-19T06:46:23;21.10;99.90
3758;DHT22;1894;51.038;13.692;2023-06-19T06:48:50;21.10;99.90
3758;DHT22;1894;51.038;13.692;2023-06-19T06:51:17;21.20;99.90
3758;DHT22;1894;51.038;13.692;2023-06-19T06:53:44;21.30;99.90
3758;DHT22;1894;51.038;13.692;2023-06-19T06:56:11;21.30;99.90
3758;DHT22;1894;51.038;13.692;2023-06-19T06:58:38;21.60;99.90
3758;DHT22;1894;51.038;13.692;2023-06-19T07:01:06;21.80;99.90
3758;DHT22;1894;51.038;13.692;2023-06-19T07:03:33;21.90;99.90
3758;DHT22;1894;51.038;13.692;2023-06-19T07:06:02;22.10;99.90
3758;DHT22;1894;51.038;13.692;2023-06-19T07:08:29;22.20;99.90
3758;DHT22;1894;51.038;13.692;2023-06-19T07:10:57;22.30;99.90
3758;DHT22;1894;51.038;13.692;2023-06-19T07:13:25;22.20;99.90
3758;DHT22;1894;51.038;13.692;2023-06-19T07:15:52;22.30;99.90
3758;DHT22;1894;51.038;13.692;2023-06-19T07:18:19;22.50;99.90
3758;DHT22;1894;51.038;13.692;2023-06-19T07:20:46;22.60;99.90
3758;DHT22;1894;51.038;13.692;2023-06-19T07:23:14;22.50;99.90
3758;DHT22;1894;51.038;13.692;2023-06-19T07:25:41;22.80;99.90
3758;DHT22;1894;51.038;13.692;2023-06-19T07:28:08;23.10;99.90
3758;DHT22;1894;51.038;13.692;2023-06-19T07:30:35;23.20;99.90
3758;DHT22;1894;51.038;13.692;2023-06-19T07:33:02;23.40;99.90
3758;DHT22;1894;51.038;13.692;2023-06-19T07:35:29;23.50;99.90
3758;DHT22;1894;51.038;13.692;2023-06-19T07:37:56;23.50;99.90
3758;DHT22;1894;51.038;13.692;2023-06-19T07:40:23;23.90;99.90
3758;DHT22;1894;51.038;13.692;2023-06-19T07:42:51;24.10;99.90
3758;DHT22;1894;51.038;13.692;2023-06-19T07:45:17;24.20;99.90
3758;DHT22;1894;51.038;13.692;2023-06-19T07:47:56;24.50;99.90
3758;DHT22;1894;51.038;13.692;2023-06-19T07:50:23;24.10;99.90
3758;DHT22;1894;51.038;13.692;2023-06-19T07:52:53;24.00;99.90
3758;DHT22;1894;51.038;13.692;2023-06-19T07:55:20;24.00;99.90
3758;DHT22;1894;51.038;13.692;2023-06-19T07:57:47;24.10;99.90
3758;DHT22;1894;51.038;13.692;2023-06-19T08:00:15;24.20;99.90
3758;DHT22;1894;51.038;13.692;2023-06-19T08:02:42;24.40;99.90
3758;DHT22;1894;51.038;13.692;2023-06-19T08:05:10;24.70;99.90
3758;DHT22;1894;51.038;13.692;2023-06-19T08:07:37;24.40;99.90
3758;DHT22;1894;51.038;13.692;2023-06-19T08:10:05;24.60;99.90
3758;DHT22;1894;51.038;13.692;2023-06-19T08:12:44;24.40;99.90
3758;DHT22;1894;51.038;13.692;2023-06-19T08:15:11;24.40;99.90
3758;DHT22;1894;51.038;13.692;2023-06-19T08:17:41;24.50;99.90
3758;DHT22;1894;51.038;13.692;2023-06-19T08:20:09;24.50;99.90
3758;DHT22;1894;51.038;13.692;2023-06-19T08:22:36;24.60;99.90
3758;DHT22;1894;51.038;13.692;2023-06-19T08:25:06;24.70;99.90
3758;DHT22;1894;51.038;13.692;2023-06-19T08:27:33;24.50;99.90
3758;DHT22;1894;51.038;13.692;2023-06-19T08:30:00;24.20;99.90
3758;DHT22;1894;51.038;13.692;2023-06-19T08:32:27;24.00;99.90
3758;DHT22;1894;51.038;13.692;2023-06-19T08:34:54;23.80;99.90
3758;DHT22;1894;51.038;13.692;2023-06-19T08:37:21;23.80;99.90
3758;DHT22;1894;51.038;13.692;2023-06-19T08:39:48;23.70;99.90
3758;DHT22;1894;51.038;13.692;2023-06-19T08:42:15;23.70;99.90
3758;DHT22;1894;51.038;13.692;2023-06-19T08:44:42;23.90;99.90
3758;DHT22;1894;51.038;13.692;2023-06-19T08:47:09;23.90;99.90
3758;DHT22;1894;51.038;13.692;2023-06-19T08:49:37;23.60;99.90
3758;DHT22;1894;51.038;13.692;2023-06-19T08:52:04;23.70;99.90
3758;DHT22;1894;51.038;13.692;2023-06-19T08:54:31;23.80;99.90
3758;DHT22;1894;51.038;13.692;2023-06-19T08:57:02;24.20;99.90
3758;DHT22;1894;51.038;13.692;2023-06-19T08:59:30;24.50;99.90
3758;DHT22;1894;51.038;13.692;2023-06-19T09:01:59;24.70;99.90
3758;DHT22;1894;51.038;13.692;2023-06-19T09:04:30;24.70;99.90
3758;DHT22;1894;51.038;13.692;2023-06-19T09:06:59;24.50;99.90
3758;DHT22;1894;51.038;13.692;2023-06-19T09:09:29;24.70;99.90
3758;DHT22;1894;51.038;13.692;2023-06-19T09:12:08;24.90;99.90
3758;DHT22;1894;51.038;13.692;2023-06-19T09:14:41;24.80;99.90
3758;DHT22;1894;51.038;13.692;2023-06-19T09:17:12;24.80;99.90
3758;DHT22;1894;51.038;13.692;2023-06-19T09:19:51;24.60;99.90
3758;DHT22;1894;51.038;13.692;2023-06-19T09:22:21;24.70;99.90
3758;DHT22;1894;51.038;13.692;2023-06-19T09:24:50;24.60;99.90
3758;DHT22;1894;51.038;13.692;2023-06-19T09:27:18;24.50;99.90
3758;DHT22;1894;51.038;13.692;2023-06-19T09:29:50;24.50;99.90
3758;DHT22;1894;51.038;13.692;2023-06-19T09:32:28;24.00;99.90
3758;DHT22;1894;51.038;13.692;2023-06-19T09:34:57;23.90;99.90
3758;DHT22;1894;51.038;13.692;2023-06-19T09:37:29;24.10;99.90
3758;DHT22;1894;51.038;13.692;2023-06-19T09:39:59;24.00;99.90
3758;DHT22;1894;51.038;13.692;2023-06-19T09:42:30;24.10;99.90
3758;DHT22;1894;51.038;13.692;2023-06-19T09:45:03;24.10;99.90
3758;DHT22;1894;51.038;13.692;2023-06-19T09:47:43;24.20;99.90
3758;DHT22;1894;51.038;13.692;2023-06-19T09:50:16;24.20;99.90
3758;DHT22;1894;51.038;13.692;2023-06-19T09:52:47;24.40;99.90
3758;DHT22;1894;51.038;13.692;2023-06-19T09:55:19;24.30;99.90
3758;DHT22;1894;51.038;13.692;2023-06-19T09:57:46;24.30;99.90
3758;DHT22;1894;51.038;13.692;2023-06-19T10:00:15;24.60;99.90
3758;DHT22;1894;51.038;13.692;2023-06-19T10:02:49;24.80;99.90
3758;DHT22;1894;51.038;13.692;2023-06-19T10:05:16;25.10;99.90
3758;DHT22;1894;51.038;13.692;2023-06-19T10:07:46;25.30;99.90
3758;DHT22;1894;51.038;13.692;2023-06-19T10:10:24;25.30;99.90
3758;DHT22;1894;51.038;13.692;2023-06-19T10:12:55;25.30;99.90
3758;DHT22;1894;51.038;13.692;2023-06-19T10:15:27;25.50;99.90
3758;DHT22;1894;51.038;13.692;2023-06-19T10:18:02;24.90;99.90
3758;DHT22;1894;51.038;13.692;2023-06-19T10:20:36;25.20;99.90
3758;DHT22;1894;51.038;13.692;2023-06-19T10:23:18;25.80;99.90
3758;DHT22;1894;51.038;13.692;2023-06-19T10:25:48;26.00;99.90
3758;DHT22;1894;51.038;13.692;2023-06-19T10:28:30;26.10;99.90
3758;DHT22;1894;51.038;13.692;2023-06-19T10:33:33;26.70;99.90
3758;DHT22;1894;51.038;13.692;2023-06-19T10:36:01;26.80;99.90
3758;DHT22;1894;51.038;13.692;2023-06-19T10:38:41;27.10;99.90
3758;DHT22;1894;51.038;13.692;2023-06-19T10:41:20;26.70;99.90
3758;DHT22;1894;51.038;13.692;2023-06-19T10:46:35;27.40;99.90
3758;DHT22;1894;51.038;13.692;2023-06-19T10:49:05;27.30;99.90
3758;DHT22;1894;51.038;13.692;2023-06-19T10:51:36;26.80;99.90
3758;DHT22;1894;51.038;13.692;2023-06-19T10:54:04;27.30;99.90
3758;DHT22;1894;51.038;13.692;2023-06-19T10:56:31;26.90;99.90
3758;DHT22;1894;51.038;13.692;2023-06-19T11:01:34;27.40;99.90
3758;DHT22;1894;51.038;13.692;2023-06-19T11:04:04;27.80;99.90
3758;DHT22;1894;51.038;13.692;2023-06-19T11:06:32;28.20;99.90
3758;DHT22;1894;51.038;13.692;2023-06-19T11:09:01;28.00;99.90
3758;DHT22;1894;51.038;13.692;2023-06-19T11:11:36;28.00;99.90
3758;DHT22;1894;51.038;13.692;2023-06-19T11:14:04;28.20;99.90
3758;DHT22;1894;51.038;13.692;2023-06-19T11:16:32;28.40;99.90
3758;DHT22;1894;51.038;13.692;2023-06-19T11:19:00;28.50;99.90
3758;DHT22;1894;51.038;13.692;2023-06-19T11:21:35;28.80;99.90
3758;DHT22;1894;51.038;13.692;2023-06-19T11:24:12;29.00;99.90
3758;DHT22;1894;51.038;13.692;2023-06-19T11:26:50;29.20;99.90
3758;DHT22;1894;51.038;13.692;2023-06-19T11:29:40;30.10;99.90
3758;DHT22;1894;51.038;13.692;2023-06-19T11:32:07;30.10;98.40
3758;DHT22;1894;51.038;13.692;2023-06-19T11:34:38;30.00;98.40
3758;DHT22;1894;51.038;13.692;2023-06-19T11:37:12;30.80;97.00
3758;DHT22;1894;51.038;13.692;2023-06-19T11:39:42;31.20;95.20
3758;DHT22;1894;51.038;13.692;2023-06-19T11:42:11;31.20;94.80
3758;DHT22;1894;51.038;13.692;2023-06-19T11:45:01;31.70;93.40
3758;DHT22;1894;51.038;13.692;2023-06-19T11:47:33;31.50;93.70
3758;DHT22;1894;51.038;13.692;2023-06-19T11:50:03;31.40;91.50
3758;DHT22;1894;51.038;13.692;2023-06-19T11:52:30;30.80;93.30
3758;DHT22;1894;51.038;13.692;2023-06-19T11:54:57;31.90;93.20
3758;DHT22;1894;51.038;13.692;2023-06-19T11:57:24;32.40;91.60
3758;DHT22;1894;51.038;13.692;2023-06-19T11:59:53;33.20;90.30
3758;DHT22;1894;51.038;13.692;2023-06-19T12:02:20;33.50;86.70
3758;DHT22;1894;51.038;13.692;2023-06-19T12:04:48;34.30;78.60
3758;DHT22;1894;51.038;13.692;2023-06-19T12:07:15;34.10;72.70
3758;DHT22;1894;51.038;13.692;2023-06-19T12:09:42;34.70;66.70
3758;DHT22;1894;51.038;13.692;2023-06-19T12:12:10;35.10;65.50
3758;DHT22;1894;51.038;13.692;2023-06-19T12:14:40;36.00;68.00
3758;DHT22;1894;51.038;13.692;2023-06-19T12:17:10;37.90;65.40
3758;DHT22;1894;51.038;13.692;2023-06-19T12:19:37;39.60;53.10
3758;DHT22;1894;51.038;13.692;2023-06-19T12:22:05;39.20;51.60
3758;DHT22;1894;51.038;13.692;2023-06-19T12:24:32;39.40;52.50
3758;DHT22;1894;51.038;13.692;2023-06-19T12:26:59;39.40;53.50
3758;DHT22;1894;51.038;13.692;2023-06-19T12:29:26;39.60;48.10
3758;DHT22;1894;51.038;13.692;2023-06-19T12:32:02;39.00;48.90
3758;DHT22;1894;51.038;13.692;2023-06-19T12:34:32;38.30;50.20
3758;DHT22;1894;51.038;13.692;2023-06-19T12:36:59;37.40;53.10
3758;DHT22;1894;51.038;13.692;2023-06-19T12:39:26;36.00;50.10
3758;DHT22;1894;51.038;13.692;2023-06-19T12:41:53;35.50;51.10
3758;DHT22;1894;51.038;13.692;2023-06-19T12:44:21;34.50;54.10
3758;DHT22;1894;51.038;13.692;2023-06-19T12:46:51;34.40;56.60
3758;DHT22;1894;51.038;13.692;2023-06-19T12:49:19;34.10;58.50
3758;DHT22;1894;51.038;13.692;2023-06-19T12:51:46;33.70;57.10
3758;DHT22;1894;51.038;13.692;2023-06-19T12:54:18;33.60;58.90
3758;DHT22;1894;51.038;13.692;2023-06-19T12:56:46;33.90;56.80
3758;DHT22;1894;51.038;13.692;2023-06-19T12:59:13;33.90;55.50
3758;DHT22;1894;51.038;13.692;2023-06-19T13:01:41;34.40;56.60
3758;DHT22;1894;51.038;13.692;2023-06-19T13:04:09;35.10;54.40
3758;DHT22;1894;51.038;13.692;2023-06-19T13:06:36;35.10;55.10
3758;DHT22;1894;51.038;13.692;2023-06-19T13:09:05;34.80;54.80
3758;DHT22;1894;51.038;13.692;2023-06-19T13:11:32;34.30;55.70
3758;DHT22;1894;51.038;13.692;2023-06-19T13:14:01;34.30;55.50
3758;DHT22;1894;51.038;13.692;2023-06-19T13:16:30;34.20;56.80
3758;DHT22;1894;51.038;13.692;2023-06-19T13:19:06;33.70;54.10
3758;DHT22;1894;51.038;13.692;2023-06-19T13:21:33;33.80;56.40
3758;DHT22;1894;51.038;13.692;2023-06-19T13:24:02;33.60;56.70
3758;DHT22;1894;51.038;13.692;2023-06-19T13:26:30;33.70;57.80
3758;DHT22;1894;51.038;13.692;2023-06-19T13:28:57;34.20;57.40
3758;DHT22;1894;51.038;13.692;2023-06-19T13:31:25;34.70;57.30
3758;DHT22;1894;51.038;13.692;2023-06-19T13:33:52;34.80;58.30
3758;DHT22;1894;51.038;13.692;2023-06-19T13:36:19;35.30;56.80
3758;DHT22;1894;51.038;13.692;2023-06-19T13:38:47;34.90;58.80
3758;DHT22;1894;51.038;13.692;2023-06-19T13:41:14;35.90;55.90
3758;DHT22;1894;51.038;13.692;2023-06-19T13:43:41;37.40;55.70
3758;DHT22;1894;51.038;13.692;2023-06-19T13:46:08;38.90;52.80
3758;DHT22;1894;51.038;13.692;2023-06-19T13:48:35;39.00;50.60
3758;DHT22;1894;51.038;13.692;2023-06-19T13:51:02;39.40;48.70
3758;DHT22;1894;51.038;13.692;2023-06-19T13:53:29;40.10;47.70
3758;DHT22;1894;51.038;13.692;2023-06-19T13:55:56;40.60;46.40
3758;DHT22;1894;51.038;13.692;2023-06-19T13:58:24;41.80;43.80
3758;DHT22;1894;51.038;13.692;2023-06-19T14:00:51;41.30;44.00
3758;DHT22;1894;51.038;13.692;2023-06-19T14:03:18;42.00;45.00
3758;DHT22;1894;51.038;13.692;2023-06-19T14:05:45;42.20;43.20
3758;DHT22;1894;51.038;13.692;2023-06-19T14:08:12;41.90;43.30
3758;DHT22;1894;51.038;13.692;2023-06-19T14:10:39;42.00;43.20
3758;DHT22;1894;51.038;13.692;2023-06-19T14:13:08;41.40;43.30
3758;DHT22;1894;51.038;13.692;2023-06-19T14:15:39;40.10;45.90
3758;DHT22;1894;51.038;13.692;2023-06-19T14:18:06;41.00;44.30
3758;DHT22;1894;51.038;13.692;2023-06-19T14:20:34;42.10;44.10
3758;DHT22;1894;51.038;13.692;2023-06-19T14:23:01;42.70;42.60
3758;DHT22;1894;51.038;13.692;2023-06-19T14:25:28;42.60;41.30
3758;DHT22;1894;51.038;13.692;2023-06-19T14:27:55;40.90;41.20
3758;DHT22;1894;51.038;13.692;2023-06-19T14:30:22;40.50;42.90
3758;DHT22;1894;51.038;13.692;2023-06-19T14:32:49;39.90;44.00
3758;DHT22;1894;51.038;13.692;2023-06-19T14:35:16;40.60;43.10
3758;DHT22;1894;51.038;13.692;2023-06-19T14:37:44;40.30;42.70
3758;DHT22;1894;51.038;13.692;2023-06-19T14:40:11;39.80;44.90
3758;DHT22;1894;51.038;13.692;2023-06-19T14:42:38;39.20;45.70
3758;DHT22;1894;51.038;13.692;2023-06-19T14:45:06;38.20;47.30
3758;DHT22;1894;51.038;13.692;2023-06-19T14:47:33;37.60;47.50
3758;DHT22;1894;51.038;13.692;2023-06-19T14:50:00;37.30;48.90
3758;DHT22;1894;51.038;13.692;2023-06-19T14:52:27;37.50;48.90
3758;DHT22;1894;51.038;13.692;2023-06-19T14:54:54;37.40;48.00
3758;DHT22;1894;51.038;13.692;2023-06-19T14:57:25;37.00;50.30
3758;DHT22;1894;51.038;13.692;2023-06-19T14:59:54;36.40;52.90
3758;DHT22;1894;51.038;13.692;2023-06-19T15:02:21;36.60;51.90
3758;DHT22;1894;51.038;13.692;2023-06-19T15:04:48;36.90;54.00
3758;DHT22;1894;51.038;13.692;2023-06-19T15:07:31;37.00;52.40
3758;DHT22;1894;51.038;13.692;2023-06-19T15:09:58;37.60;51.80
3758;DHT22;1894;51.038;13.692;2023-06-19T15:12:25;38.30;48.50
3758;DHT22;1894;51.038;13.692;2023-06-19T15:14:52;38.90;47.80
3758;DHT22;1894;51.038;13.692;2023-06-19T15:17:19;39.60;49.30
3758;DHT22;1894;51.038;13.692;2023-06-19T15:19:46;40.10;46.00
3758;DHT22;1894;51.038;13.692;2023-06-19T15:22:13;40.70;44.10
3758;DHT22;1894;51.038;13.692;2023-06-19T15:24:40;41.70;41.50
3758;DHT22;1894;51.038;13.692;2023-06-19T15:27:07;42.00;40.60
3758;DHT22;1894;51.038;13.692;2023-06-19T15:29:34;42.00;40.20
3758;DHT22;1894;51.038;13.692;2023-06-19T15:32:02;41.90;40.00
3758;DHT22;1894;51.038;13.692;2023-06-19T15:34:29;40.80;41.00
3758;DHT22;1894;51.038;13.692;2023-06-19T15:36:56;39.80;43.10
3758;DHT22;1894;51.038;13.692;2023-06-19T15:39:23;39.00;42.70
3758;DHT22;1894;51.038;13.692;2023-06-19T15:41:50;37.90;44.60
3758;DHT22;1894;51.038;13.692;2023-06-19T15:44:17;37.40;47.90
3758;DHT22;1894;51.038;13.692;2023-06-19T15:46:44;38.00;44.50
3758;DHT22;1894;51.038;13.692;2023-06-19T15:49:12;38.70;43.40
3758;DHT22;1894;51.038;13.692;2023-06-19T15:51:39;40.40;40.70
3758;DHT22;1894;51.038;13.692;2023-06-19T15:54:06;40.80;40.60
3758;DHT22;1894;51.038;13.692;2023-06-19T15:56:38;39.70;40.90
3758;DHT22;1894;51.038;13.692;2023-06-19T15:59:06;40.90;42.50
3758;DHT22;1894;51.038;13.692;2023-06-19T16:01:33;41.80;41.10